createdAt,value
2022-09-12T00:01:08.454Z,5.07
2022-09-12T00:03:35.377Z,5.00
2022-09-12T00:06:07.280Z,4.60
2022-09-12T00:08:34.065Z,4.47
2022-09-12T00:11:05.139Z,4.72
2022-09-12T00:13:31.898Z,4.32
2022-09-12T00:15:58.481Z,6.53
2022-09-12T00:18:25.128Z,4.22
2022-09-12T00:20:51.825Z,5.05
2022-09-12T00:23:18.663Z,5.38
2022-09-12T00:25:46.905Z,15.52
2022-09-12T00:28:17.071Z,8.63
2022-09-12T00:30:44.588Z,5.03
2022-09-12T00:33:11.596Z,4.38
2022-09-12T00:35:42.455Z,6.30
2022-09-12T00:38:09.350Z,5.38
2022-09-12T00:40:36.250Z,5.20
2022-09-12T00:43:02.830Z,5.57
2022-09-12T00:45:31.923Z,4.07
2022-09-12T00:48:02.570Z,3.53
2022-09-12T00:50:29.671Z,7.35
2022-09-12T00:53:00.199Z,7.18
2022-09-12T00:55:30.610Z,4.50
2022-09-12T00:58:02.324Z,6.35
2022-09-12T01:00:30.635Z,5.22
2022-09-12T01:03:00.199Z,3.35
2022-09-12T01:05:28.767Z,3.03
2022-09-12T01:07:57.118Z,5.35
2022-09-12T01:10:24.761Z,8.20
2022-09-12T01:12:51.456Z,3.03
2022-09-12T01:15:18.355Z,4.80
2022-09-12T01:18:03.033Z,4.35
2022-09-12T01:20:53.747Z,5.72
2022-09-12T01:23:44.439Z,6.18
2022-09-12T01:26:31.615Z,4.90
2022-09-12T01:29:24.700Z,6.60
2022-09-12T01:32:04.893Z,3.45
2022-09-12T01:34:39.914Z,3.20
2022-09-12T01:37:15.405Z,7.15
2022-09-12T01:39:51.325Z,4.68
2022-09-12T01:42:24.163Z,3.92
2022-09-12T01:44:57.059Z,9.63
2022-09-12T01:47:33.577Z,3.20
2022-09-12T01:50:04.067Z,7.97
2022-09-12T01:52:38.359Z,4.78
2022-09-12T01:55:10.865Z,5.25
2022-09-12T01:57:42.227Z,3.20
2022-09-12T02:00:11.452Z,4.75
2022-09-12T02:02:44.055Z,5.97
2022-09-12T02:05:16.396Z,7.35
2022-09-12T02:07:47.399Z,6.90
2022-09-12T02:10:17.391Z,6.25
2022-09-12T02:12:48.937Z,4.75
2022-09-12T02:15:22.240Z,3.83
2022-09-12T02:17:54.916Z,6.53
2022-09-12T02:20:47.025Z,5.93
2022-09-12T02:23:17.306Z,8.77
2022-09-12T02:25:47.264Z,4.53
2022-09-12T02:28:17.145Z,6.50
2022-09-12T02:30:51.126Z,7.32
2022-09-12T02:33:26.914Z,4.43
2022-09-12T02:35:59.343Z,4.03
2022-09-12T02:38:32.716Z,3.92
2022-09-12T02:40:59.710Z,4.18
2022-09-12T02:43:26.501Z,4.90
2022-09-12T02:45:53.491Z,3.55
2022-09-12T02:48:27.206Z,3.67
2022-09-12T02:50:54.503Z,5.28
2022-09-12T02:53:21.956Z,4.55
2022-09-12T02:55:48.879Z,4.95
2022-09-12T02:58:18.309Z,4.80
2022-09-12T03:00:51.049Z,4.00
2022-09-12T03:03:49.420Z,4.80
2022-09-12T03:06:24.099Z,3.85
2022-09-12T03:09:03.000Z,4.82
2022-09-12T03:12:02.756Z,5.50
2022-09-12T03:14:43.942Z,8.38
2022-09-12T03:17:21.685Z,7.13
2022-09-12T03:20:01.120Z,4.75
2022-09-12T03:22:33.430Z,4.32
2022-09-12T03:25:07.176Z,4.75
2022-09-12T03:27:37.069Z,4.38
2022-09-12T03:30:05.027Z,5.22
2022-09-12T03:32:42.112Z,5.35
2022-09-12T03:35:10.950Z,7.60
2022-09-12T03:37:37.577Z,3.47
2022-09-12T03:40:05.882Z,6.75
2022-09-12T03:42:32.561Z,4.20
2022-09-12T03:44:59.170Z,3.80
2022-09-12T03:47:25.973Z,4.38
2022-09-12T03:49:52.771Z,4.10
2022-09-12T03:52:21.171Z,4.55
2022-09-12T03:54:48.107Z,5.10
2022-09-12T03:57:15.103Z,5.95
2022-09-12T03:59:41.863Z,5.70
2022-09-12T04:02:09.050Z,4.10
2022-09-12T04:04:35.833Z,3.42
2022-09-12T04:07:02.637Z,3.67
2022-09-12T04:09:30.965Z,3.90
2022-09-12T04:11:57.980Z,5.68
2022-09-12T04:14:24.764Z,3.00
2022-09-12T04:16:51.637Z,4.65
2022-09-12T04:19:18.293Z,3.58
2022-09-12T04:21:44.891Z,9.98
2022-09-12T04:24:11.965Z,8.70
2022-09-12T04:26:40.466Z,6.10
2022-09-12T04:29:07.163Z,4.85
2022-09-12T04:31:33.929Z,4.95
2022-09-12T04:34:01.541Z,4.85
2022-09-12T04:36:29.652Z,4.35
2022-09-12T04:38:56.424Z,6.88
2022-09-12T04:41:24.932Z,3.35
2022-09-12T04:43:55.279Z,4.95
2022-09-12T04:46:22.293Z,3.72
2022-09-12T04:48:53.262Z,2.30
2022-09-12T04:51:24.872Z,4.10
2022-09-12T04:53:53.678Z,2.45
2022-09-12T04:56:21.601Z,3.58
2022-09-12T04:58:49.138Z,7.00
2022-09-12T05:01:19.369Z,3.97
2022-09-12T05:03:47.751Z,3.90
2022-09-12T05:06:16.528Z,8.52
2022-09-12T05:08:43.595Z,7.22
2022-09-12T05:11:12.683Z,9.13
2022-09-12T05:13:39.994Z,6.38
2022-09-12T05:16:08.225Z,4.85
2022-09-12T05:18:37.032Z,7.13
2022-09-12T05:21:06.112Z,6.28
2022-09-12T05:23:32.896Z,4.18
2022-09-12T05:26:00.742Z,5.57
2022-09-12T05:28:31.344Z,8.38
2022-09-12T05:31:02.404Z,3.05
2022-09-12T05:33:30.077Z,6.57
2022-09-12T05:35:58.611Z,4.93
2022-09-12T05:38:25.492Z,4.15
2022-09-12T05:40:52.487Z,6.65
2022-09-12T05:43:19.324Z,3.55
2022-09-12T05:45:46.475Z,2.75
2022-09-12T05:48:13.198Z,3.70
2022-09-12T05:50:40.175Z,3.38
2022-09-12T05:53:08.192Z,2.95
2022-09-12T05:55:34.976Z,5.75
2022-09-12T05:58:01.565Z,5.65
2022-09-12T06:00:31.602Z,5.30
2022-09-12T06:03:00.006Z,5.05
2022-09-12T06:05:26.531Z,4.95
2022-09-12T06:07:53.216Z,6.28
2022-09-12T06:10:21.196Z,8.88
2022-09-12T06:12:47.774Z,6.90
2022-09-12T06:15:14.889Z,8.63
2022-09-12T06:17:41.532Z,10.02
2022-09-12T06:20:08.671Z,11.18
2022-09-12T06:22:35.289Z,9.43
2022-09-12T06:25:01.802Z,7.78
2022-09-12T06:27:29.820Z,12.38
2022-09-12T06:29:56.447Z,9.00
2022-09-12T06:32:23.062Z,11.80
2022-09-12T06:34:49.777Z,11.13
2022-09-12T06:37:16.373Z,7.63
2022-09-12T06:39:42.977Z,9.07
2022-09-12T06:42:09.686Z,11.10
2022-09-12T06:44:37.751Z,9.35
2022-09-12T06:47:04.499Z,8.85
2022-09-12T06:49:31.098Z,9.10
2022-09-12T06:51:57.642Z,8.73
2022-09-12T06:54:24.228Z,9.50
2022-09-12T06:56:50.821Z,10.75
2022-09-12T06:59:17.386Z,13.23
2022-09-12T07:01:45.569Z,10.13
2022-09-12T07:04:12.249Z,10.43
2022-09-12T07:06:41.265Z,14.15
2022-09-12T07:09:10.801Z,11.73
2022-09-12T07:11:39.389Z,10.27
2022-09-12T07:14:08.543Z,9.15
2022-09-12T07:16:36.048Z,9.05
2022-09-12T07:19:06.031Z,14.15
2022-09-12T07:21:33.053Z,10.07
2022-09-12T07:23:59.728Z,12.02
2022-09-12T07:26:27.895Z,9.57
2022-09-12T07:29:07.905Z,10.95
2022-09-12T07:31:43.107Z,8.50
2022-09-12T07:34:11.354Z,8.73
2022-09-12T07:36:38.249Z,8.38
2022-09-12T07:39:04.971Z,8.20
2022-09-12T07:41:32.855Z,10.25
2022-09-12T07:44:01.324Z,8.70
2022-09-12T07:46:29.376Z,7.07
2022-09-12T07:48:57.692Z,8.45
2022-09-12T07:51:27.086Z,8.10
2022-09-12T07:53:54.248Z,12.32
2022-09-12T07:56:20.815Z,7.20
2022-09-12T07:58:48.181Z,8.60
2022-09-12T08:01:16.221Z,13.77
2022-09-12T08:03:44.503Z,8.55
2022-09-12T08:06:13.126Z,6.53
2022-09-12T08:08:41.933Z,9.48
2022-09-12T08:11:10.285Z,6.53
2022-09-12T08:13:38.274Z,8.63
2022-09-12T08:16:07.255Z,11.27
2022-09-12T08:18:36.069Z,6.05
2022-09-12T08:21:05.526Z,6.28
2022-09-12T08:23:32.493Z,5.88
2022-09-12T08:26:05.786Z,5.00
2022-09-12T08:28:35.071Z,6.88
2022-09-12T08:31:02.730Z,5.60
2022-09-12T08:33:30.157Z,8.15
2022-09-12T08:36:03.089Z,5.93
2022-09-12T08:38:29.920Z,3.50
2022-09-12T08:41:04.447Z,5.00
2022-09-12T08:43:46.656Z,3.15
2022-09-12T08:46:19.535Z,3.40
2022-09-12T08:48:46.890Z,4.10
2022-09-12T08:51:16.819Z,3.63
2022-09-12T08:53:45.171Z,1.50
2022-09-12T08:56:13.484Z,3.17
2022-09-12T08:58:43.268Z,2.00
2022-09-12T09:01:17.813Z,1.95
2022-09-12T09:04:04.723Z,3.05
2022-09-12T09:06:46.980Z,2.13
2022-09-12T09:09:21.769Z,1.85
2022-09-12T09:12:06.094Z,1.55
2022-09-12T09:14:49.810Z,3.03
2022-09-12T09:19:52.181Z,1.58
2022-09-12T09:22:28.353Z,2.17
2022-09-12T09:25:00.065Z,1.13
2022-09-12T09:27:41.626Z,4.82
2022-09-12T09:30:14.904Z,3.70
2022-09-12T09:32:42.271Z,1.17
2022-09-12T09:35:16.322Z,3.67
2022-09-12T09:37:48.093Z,3.35
2022-09-12T09:40:22.676Z,1.25
2022-09-12T09:42:59.247Z,1.98
2022-09-12T09:45:26.462Z,1.20
2022-09-12T09:47:57.233Z,2.95
2022-09-12T09:50:24.342Z,2.45
2022-09-12T09:52:52.537Z,2.50
2022-09-12T09:55:23.224Z,2.63
2022-09-12T09:57:50.059Z,1.63
2022-09-12T10:00:24.373Z,3.00
2022-09-12T10:03:31.189Z,1.73
2022-09-12T10:06:00.607Z,3.17
2022-09-12T10:08:29.420Z,1.42
2022-09-12T10:10:58.903Z,1.88
2022-09-12T10:13:31.582Z,1.20
2022-09-12T10:16:02.523Z,3.70
2022-09-12T10:18:41.429Z,2.10
2022-09-12T10:21:18.220Z,1.77
2022-09-12T10:23:46.513Z,1.63
2022-09-12T10:26:15.766Z,1.90
2022-09-12T10:28:45.684Z,1.42
2022-09-12T10:31:17.776Z,1.35
2022-09-12T10:33:47.450Z,1.35
2022-09-12T10:36:15.565Z,1.63
2022-09-12T10:38:49.345Z,1.40
2022-09-12T10:41:16.170Z,3.85
2022-09-12T10:43:43.655Z,1.13
2022-09-12T10:46:31.437Z,1.60
2022-09-12T10:49:32.307Z,1.13
2022-09-12T10:52:17.539Z,1.45
2022-09-12T10:54:44.163Z,4.10
2022-09-12T10:57:46.274Z,3.78
2022-09-12T11:00:15.270Z,1.90
2022-09-12T11:02:51.609Z,2.17
2022-09-12T11:05:32.662Z,1.63
2022-09-12T11:08:08.184Z,3.20
2022-09-12T11:10:44.520Z,1.23
2022-09-12T11:13:25.515Z,2.38
2022-09-12T11:16:19.761Z,3.22
2022-09-12T11:19:10.714Z,1.70
2022-09-12T11:22:03.960Z,4.13
2022-09-12T11:24:41.949Z,2.38
2022-09-12T11:27:24.633Z,1.40
2022-09-12T11:29:58.056Z,1.45
2022-09-12T11:35:19.251Z,1.05
2022-09-12T11:37:59.092Z,1.90
2022-09-12T11:40:34.489Z,2.15
2022-09-12T11:43:07.375Z,1.05
2022-09-12T11:45:39.913Z,1.75
2022-09-12T11:48:12.857Z,1.27
2022-09-12T11:50:40.763Z,2.83
2022-09-12T11:53:17.024Z,1.20
2022-09-12T11:55:55.532Z,1.52
2022-09-12T11:58:26.551Z,1.20
2022-09-12T12:00:57.932Z,0.98
2022-09-12T12:03:32.605Z,1.40
2022-09-12T12:06:04.386Z,1.67
2022-09-12T12:08:37.774Z,3.60
2022-09-12T12:13:34.017Z,1.23
2022-09-12T12:16:05.078Z,3.13
2022-09-12T12:18:33.353Z,1.88
2022-09-12T12:24:11.805Z,1.88
2022-09-12T12:26:55.403Z,3.10
2022-09-12T12:32:25.263Z,1.20
2022-09-12T12:37:54.239Z,2.33
2022-09-12T12:40:26.409Z,1.50
2022-09-12T12:43:05.054Z,2.60
2022-09-12T12:46:11.411Z,4.90
2022-09-12T12:48:50.155Z,1.20
2022-09-12T12:51:54.684Z,3.08
2022-09-12T12:54:30.257Z,2.97
2022-09-12T12:57:18.281Z,1.60
2022-09-12T12:59:51.770Z,1.50
2022-09-12T13:02:25.229Z,2.13
2022-09-12T13:04:53.360Z,5.35
2022-09-12T13:07:30.121Z,1.83
2022-09-12T13:09:58.213Z,3.25
2022-09-12T13:12:30.355Z,2.30
2022-09-12T13:14:58.939Z,1.92
2022-09-12T13:17:30.688Z,1.90
2022-09-12T13:20:28.451Z,1.00
2022-09-12T13:22:56.047Z,2.83
2022-09-12T13:25:26.903Z,2.40
2022-09-12T13:28:06.170Z,1.15
2022-09-12T13:30:35.221Z,2.58
2022-09-12T13:33:21.950Z,2.65
2022-09-12T13:36:06.486Z,3.40
2022-09-12T13:38:43.338Z,1.63
2022-09-12T13:41:26.512Z,4.40
2022-09-12T13:43:54.783Z,1.77
2022-09-12T13:46:27.730Z,1.35
2022-09-12T13:48:54.541Z,0.93
2022-09-12T13:51:24.514Z,1.30
2022-09-12T13:53:53.792Z,2.95
2022-09-12T13:56:20.640Z,1.33
2022-09-12T13:58:56.118Z,1.85
2022-09-12T14:01:24.074Z,2.95
2022-09-12T14:03:56.738Z,1.17
2022-09-12T14:06:25.203Z,1.85
2022-09-12T14:08:51.881Z,1.60
2022-09-12T14:11:26.054Z,1.08
2022-09-12T14:13:54.447Z,1.58
2022-09-12T14:16:21.363Z,0.95
2022-09-12T14:18:49.044Z,1.98
2022-09-12T14:21:32.429Z,1.55
2022-09-12T14:23:59.658Z,4.15
2022-09-12T14:26:28.103Z,1.33
2022-09-12T14:28:56.573Z,2.35
2022-09-12T14:31:24.846Z,1.88
2022-09-12T14:33:53.383Z,2.35
2022-09-12T14:36:23.987Z,1.60
2022-09-12T14:38:53.839Z,2.45
2022-09-12T14:41:27.656Z,1.77
2022-09-12T14:43:58.884Z,1.15
2022-09-12T14:46:30.819Z,5.80
2022-09-12T14:49:00.005Z,1.00
2022-09-12T14:51:30.881Z,3.40
2022-09-12T14:53:57.821Z,3.22
2022-09-12T14:56:38.650Z,1.35
2022-09-12T14:59:28.560Z,1.17
2022-09-12T15:02:31.380Z,1.38
2022-09-12T15:05:17.162Z,0.93
2022-09-12T15:07:50.923Z,2.28
2022-09-12T15:10:20.541Z,1.13
2022-09-12T15:12:47.105Z,2.05
2022-09-12T15:15:17.550Z,1.45
2022-09-12T15:17:44.141Z,2.72
2022-09-12T15:20:11.954Z,3.95
2022-09-12T15:22:39.330Z,2.40
2022-09-12T15:25:06.838Z,1.90
2022-09-12T15:27:33.524Z,0.88
2022-09-12T15:30:00.141Z,2.40
2022-09-12T15:32:30.041Z,1.33
2022-09-12T15:34:56.854Z,1.20
2022-09-12T15:37:24.218Z,3.22
2022-09-12T15:39:51.651Z,5.45
2022-09-12T15:42:29.231Z,3.08
2022-09-12T15:44:58.453Z,0.75
2022-09-12T15:47:29.761Z,3.10
2022-09-12T15:49:57.041Z,4.10
2022-09-12T15:52:23.674Z,2.60
2022-09-12T15:54:50.218Z,1.42
2022-09-12T15:57:16.728Z,0.95
2022-09-12T15:59:43.322Z,5.30
2022-09-12T16:02:11.656Z,2.55
2022-09-12T16:04:39.936Z,4.05
2022-09-12T16:07:06.466Z,5.32
2022-09-12T16:09:33.079Z,1.77
2022-09-12T16:11:59.689Z,3.00
2022-09-12T16:14:26.210Z,3.33
2022-09-12T16:16:54.224Z,2.65
2022-09-12T16:19:21.439Z,5.32
2022-09-12T16:21:49.797Z,2.28
2022-09-12T16:24:16.584Z,1.98
2022-09-12T16:26:43.248Z,6.03
2022-09-12T16:29:12.639Z,1.38
2022-09-12T16:31:39.215Z,4.43
2022-09-12T16:34:06.064Z,4.22
2022-09-12T16:36:32.861Z,2.72
2022-09-12T16:39:00.921Z,2.25
2022-09-12T16:41:27.533Z,3.92
2022-09-12T16:43:54.889Z,4.90
2022-09-12T16:46:23.688Z,1.45
2022-09-12T16:48:52.875Z,3.72
2022-09-12T16:51:21.468Z,5.20
2022-09-12T16:53:48.931Z,2.08
2022-09-12T16:56:17.469Z,3.83
2022-09-12T16:58:44.716Z,3.75
2022-09-12T17:01:13.880Z,3.70
2022-09-12T17:03:40.632Z,2.30
2022-09-12T17:06:09.224Z,2.45
2022-09-12T17:08:37.673Z,1.55
2022-09-12T17:11:06.588Z,4.65
2022-09-12T17:14:00.103Z,1.60
2022-09-12T17:16:22.212Z,2.35
2022-09-12T17:18:49.318Z,4.47
2022-09-12T17:21:15.906Z,2.08
2022-09-12T17:23:42.591Z,2.85
2022-09-12T17:26:10.272Z,1.10
2022-09-12T17:28:39.288Z,2.88
2022-09-12T17:31:08.138Z,4.53
2022-09-12T17:33:34.821Z,1.42
2022-09-12T17:36:02.456Z,2.67
2022-09-12T17:38:31.556Z,5.75
2022-09-12T17:41:04.791Z,4.32
2022-09-12T17:43:31.288Z,2.10
2022-09-12T17:45:59.255Z,2.83
2022-09-12T17:48:25.941Z,5.55
2022-09-12T17:50:52.981Z,1.55
2022-09-12T17:53:20.818Z,6.63
2022-09-12T17:55:51.449Z,5.75
2022-09-12T17:58:20.593Z,4.47
2022-09-12T18:00:47.532Z,7.22
2022-09-12T18:03:16.506Z,4.45
2022-09-12T18:05:46.986Z,23.85
2022-09-12T18:08:14.349Z,23.92
2022-09-12T18:10:41.541Z,23.65
2022-09-12T18:13:08.126Z,21.08
2022-09-12T18:15:35.001Z,17.98
2022-09-12T18:18:01.977Z,19.90
2022-09-12T18:20:30.017Z,39.25
2022-09-12T18:22:56.697Z,17.75
2022-09-12T18:25:23.403Z,16.02
2022-09-12T18:27:49.959Z,11.75
2022-09-12T18:30:21.570Z,7.32
2022-09-12T18:32:48.923Z,8.75
2022-09-12T18:35:15.669Z,4.70
2022-09-12T18:37:44.124Z,11.32
2022-09-12T18:40:11.396Z,5.95
2022-09-12T18:42:38.066Z,6.72
2022-09-12T18:45:05.273Z,7.05
2022-09-12T18:47:31.868Z,11.15
2022-09-12T18:49:58.475Z,8.10
2022-09-12T18:52:25.118Z,5.78
2022-09-12T18:54:53.143Z,5.25
2022-09-12T18:57:19.692Z,4.72
2022-09-12T18:59:46.254Z,5.15
2022-09-12T19:02:15.719Z,7.75
2022-09-12T19:04:42.779Z,10.40
2022-09-12T19:07:09.452Z,4.20
2022-09-12T19:09:36.035Z,7.05
2022-09-12T19:12:04.497Z,4.32
2022-09-12T19:14:31.087Z,6.35
2022-09-12T19:16:57.666Z,3.83
2022-09-12T19:19:24.249Z,4.57
2022-09-12T19:21:50.785Z,6.60
2022-09-12T19:24:17.600Z,6.32
2022-09-12T19:26:44.564Z,5.07
2022-09-12T19:29:12.576Z,3.53
2022-09-12T19:31:39.254Z,3.58
2022-09-12T19:34:07.196Z,6.50
2022-09-12T19:36:50.399Z,3.88
2022-09-12T19:39:18.243Z,4.18
2022-09-12T19:41:45.332Z,4.80
2022-09-12T19:44:13.605Z,4.80
2022-09-12T19:46:40.421Z,6.15
2022-09-12T19:49:07.359Z,5.93
2022-09-12T19:51:33.986Z,6.20
2022-09-12T19:54:00.680Z,6.13
2022-09-12T19:56:27.430Z,4.97
2022-09-12T19:58:56.619Z,12.00
2022-09-12T20:01:26.966Z,4.43
2022-09-12T20:03:53.550Z,6.13
2022-09-12T20:06:20.670Z,3.28
2022-09-12T20:08:47.370Z,4.72
2022-09-12T20:11:15.670Z,8.70
2022-09-12T20:13:42.257Z,7.25
2022-09-12T20:16:11.578Z,4.18
2022-09-12T20:18:39.668Z,8.52
2022-09-12T20:21:11.033Z,6.30
2022-09-12T20:23:37.849Z,6.38
2022-09-12T20:26:04.625Z,5.80
2022-09-12T20:28:31.494Z,6.57
2022-09-12T20:31:01.176Z,6.80
2022-09-12T20:33:27.796Z,5.18
2022-09-12T20:36:01.416Z,8.40
2022-09-12T20:38:28.006Z,7.88
2022-09-12T20:40:54.584Z,5.65
2022-09-12T20:43:21.173Z,7.28
2022-09-12T20:45:47.873Z,9.68
2022-09-12T20:48:14.508Z,7.78
2022-09-12T20:50:41.016Z,7.40
2022-09-12T20:53:08.996Z,9.23
2022-09-12T20:55:35.610Z,5.63
2022-09-12T20:58:02.253Z,10.27
2022-09-12T21:00:28.938Z,5.68
2022-09-12T21:02:55.714Z,6.93
2022-09-12T21:05:22.367Z,9.27
2022-09-12T21:07:49.095Z,8.00
2022-09-12T21:10:17.154Z,6.95
2022-09-12T21:12:43.708Z,5.47
2022-09-12T21:15:10.671Z,6.55
2022-09-12T21:17:37.215Z,4.88
2022-09-12T21:20:07.908Z,10.75
2022-09-12T21:25:04.331Z,6.50
2022-09-12T21:27:32.321Z,8.55
2022-09-12T21:29:59.147Z,8.73
2022-09-12T21:32:25.741Z,7.40
2022-09-12T21:34:52.340Z,9.15
2022-09-12T21:37:18.906Z,5.95
2022-09-12T21:39:45.473Z,7.57
2022-09-12T21:42:12.114Z,6.57
2022-09-12T21:44:40.080Z,5.57
2022-09-12T21:47:06.738Z,5.57
2022-09-12T21:49:33.331Z,7.20
2022-09-12T21:51:59.831Z,7.07
2022-09-12T21:54:26.366Z,7.30
2022-09-12T21:56:52.990Z,6.72
2022-09-12T21:59:20.229Z,8.30
2022-09-12T22:01:48.231Z,5.13
2022-09-12T22:04:15.004Z,6.70
2022-09-12T22:06:41.518Z,5.68
2022-09-12T22:09:08.108Z,5.93
2022-09-12T22:11:34.667Z,7.60
2022-09-12T22:14:01.194Z,6.22
2022-09-12T22:16:27.865Z,4.18
2022-09-12T22:18:56.034Z,7.13
2022-09-12T22:21:22.844Z,4.47
2022-09-12T22:23:49.854Z,6.82
2022-09-12T22:26:16.667Z,6.10
2022-09-12T22:28:44.031Z,9.85
2022-09-12T22:31:12.349Z,7.63
2022-09-12T22:33:39.835Z,4.68
2022-09-12T22:36:08.700Z,7.47
2022-09-12T22:38:35.814Z,4.53
2022-09-12T22:41:06.511Z,5.38
2022-09-12T22:43:33.257Z,6.03
2022-09-12T22:45:59.912Z,5.20
2022-09-12T22:48:27.059Z,4.97
2022-09-12T22:50:53.669Z,4.18
2022-09-12T22:53:21.594Z,3.83
2022-09-12T22:55:48.149Z,7.78
2022-09-12T22:58:14.778Z,4.38
2022-09-12T23:00:46.161Z,5.47
2022-09-12T23:03:12.784Z,5.03
2022-09-12T23:05:39.404Z,4.43
2022-09-12T23:08:05.949Z,5.63
2022-09-12T23:10:36.325Z,5.18
2022-09-12T23:13:03.461Z,6.15
2022-09-12T23:15:29.996Z,4.50
2022-09-12T23:17:56.853Z,8.35
2022-09-12T23:20:23.673Z,3.92
2022-09-12T23:22:50.595Z,4.53
2022-09-12T23:25:17.372Z,4.15
2022-09-12T23:27:45.319Z,3.75
2022-09-12T23:30:12.021Z,3.75
2022-09-12T23:32:38.653Z,4.10
2022-09-12T23:35:05.892Z,4.50
2022-09-12T23:37:32.482Z,4.05
2022-09-12T23:39:59.078Z,6.30
2022-09-12T23:42:25.665Z,6.18
2022-09-12T23:44:53.846Z,4.65
2022-09-12T23:47:20.422Z,4.55
2022-09-12T23:49:46.971Z,5.30
2022-09-12T23:52:13.612Z,4.15
2022-09-12T23:54:40.216Z,4.43
2022-09-12T23:57:06.761Z,4.05
2022-09-12T23:59:33.337Z,6.90
